sensor_id;sensor_type;location;lat;lon;timestamp;pressure;altitude;pressure_sealevel;temperature;humidity
35419;BME280;21525;41.240;16.500;2023-03-03T00:01:36;101268.31;;;16.89;55.25
35419;BME280;21525;41.240;16.500;2023-03-03T00:04:02;101265.72;;;16.87;55.17
35419;BME280;21525;41.240;16.500;2023-03-03T00:06:28;101259.38;;;16.63;55.91
35419;BME280;21525;41.240;16.500;2023-03-03T00:08:55;101250.88;;;16.86;55.26
35419;BME280;21525;41.240;16.500;2023-03-03T00:11:21;101256.03;;;16.58;56.52
35419;BME280;21525;41.240;16.500;2023-03-03T00:13:48;101258.13;;;16.78;56.00
35419;BME280;21525;41.240;16.500;2023-03-03T00:18:53;101255.63;;;16.73;56.13
35419;BME280;21525;41.240;16.500;2023-03-03T00:21:39;101246.16;;;16.37;57.75
35419;BME280;21525;41.240;16.500;2023-03-03T00:24:22;101257.81;;;16.27;57.52
35419;BME280;21525;41.240;16.500;2023-03-03T00:26:51;101252.09;;;16.43;57.09
35419;BME280;21525;41.240;16.500;2023-03-03T00:29:35;101246.34;;;16.90;56.05
35419;BME280;21525;41.240;16.500;2023-03-03T00:34:40;101235.34;;;16.48;56.67
35419;BME280;21525;41.240;16.500;2023-03-03T00:37:32;101242.09;;;16.56;56.52
35419;BME280;21525;41.240;16.500;2023-03-03T00:40:21;101235.56;;;16.71;56.49
35419;BME280;21525;41.240;16.500;2023-03-03T00:42:50;101235.03;;;16.58;56.37
35419;BME280;21525;41.240;16.500;2023-03-03T00:45:26;101223.09;;;16.77;55.77
35419;BME280;21525;41.240;16.500;2023-03-03T00:47:53;101222.09;;;16.82;55.37
35419;BME280;21525;41.240;16.500;2023-03-03T00:50:26;101224.38;;;16.92;55.37
35419;BME280;21525;41.240;16.500;2023-03-03T00:53:03;101216.16;;;17.03;55.29
35419;BME280;21525;41.240;16.500;2023-03-03T00:55:30;101216.00;;;16.81;55.65
35419;BME280;21525;41.240;16.500;2023-03-03T00:57:56;101220.44;;;16.79;55.99
35419;BME280;21525;41.240;16.500;2023-03-03T01:00:27;101212.72;;;16.73;56.40
35419;BME280;21525;41.240;16.500;2023-03-03T01:02:54;101212.41;;;16.54;56.76
35419;BME280;21525;41.240;16.500;2023-03-03T01:05:20;101222.25;;;16.77;56.40
35419;BME280;21525;41.240;16.500;2023-03-03T01:07:46;101216.75;;;16.85;56.32
35419;BME280;21525;41.240;16.500;2023-03-03T01:10:12;101213.50;;;16.76;56.41
35419;BME280;21525;41.240;16.500;2023-03-03T01:12:38;101218.66;;;16.79;56.81
35419;BME280;21525;41.240;16.500;2023-03-03T01:15:06;101213.91;;;16.61;56.86
35419;BME280;21525;41.240;16.500;2023-03-03T01:17:33;101212.28;;;16.57;56.98
35419;BME280;21525;41.240;16.500;2023-03-03T01:19:59;101214.13;;;16.55;57.32
35419;BME280;21525;41.240;16.500;2023-03-03T01:22:26;101213.38;;;16.21;58.35
35419;BME280;21525;41.240;16.500;2023-03-03T01:24:52;101216.03;;;16.50;57.53
35419;BME280;21525;41.240;16.500;2023-03-03T01:27:17;101207.53;;;16.11;58.40
35419;BME280;21525;41.240;16.500;2023-03-03T01:29:43;101207.19;;;16.23;57.92
35419;BME280;21525;41.240;16.500;2023-03-03T01:32:09;101207.25;;;16.22;58.07
35419;BME280;21525;41.240;16.500;2023-03-03T01:34:35;101212.13;;;16.34;57.26
35419;BME280;21525;41.240;16.500;2023-03-03T01:37:01;101209.41;;;16.37;56.97
35419;BME280;21525;41.240;16.500;2023-03-03T01:39:28;101200.44;;;16.44;56.71
35419;BME280;21525;41.240;16.500;2023-03-03T01:41:53;101206.72;;;16.69;55.88
35419;BME280;21525;41.240;16.500;2023-03-03T01:44:19;101206.56;;;16.44;56.47
35419;BME280;21525;41.240;16.500;2023-03-03T01:47:06;101195.09;;;16.47;56.50
35419;BME280;21525;41.240;16.500;2023-03-03T01:49:53;101192.09;;;16.30;57.00
35419;BME280;21525;41.240;16.500;2023-03-03T01:54:56;101192.09;;;16.30;57.22
35419;BME280;21525;41.240;16.500;2023-03-03T01:57:31;101195.63;;;16.29;57.35
35419;BME280;21525;41.240;16.500;2023-03-03T01:59:59;101194.16;;;16.50;56.28
35419;BME280;21525;41.240;16.500;2023-03-03T02:02:27;101196.28;;;16.37;56.22
35419;BME280;21525;41.240;16.500;2023-03-03T02:04:53;101193.84;;;16.59;56.10
35419;BME280;21525;41.240;16.500;2023-03-03T02:07:20;101190.63;;;16.51;56.27
35419;BME280;21525;41.240;16.500;2023-03-03T02:10:11;101188.31;;;16.10;57.37
35419;BME280;21525;41.240;16.500;2023-03-03T02:12:55;101192.31;;;16.24;57.34
35419;BME280;21525;41.240;16.500;2023-03-03T02:15:25;101195.38;;;16.38;57.20
35419;BME280;21525;41.240;16.500;2023-03-03T02:17:55;101189.84;;;16.47;56.66
35419;BME280;21525;41.240;16.500;2023-03-03T02:23:26;101188.31;;;16.69;55.57
35419;BME280;21525;41.240;16.500;2023-03-03T02:28:26;101195.19;;;16.44;56.19
35419;BME280;21525;41.240;16.500;2023-03-03T02:30:54;101184.72;;;16.13;56.30
35419;BME280;21525;41.240;16.500;2023-03-03T02:33:21;101186.19;;;16.23;55.53
35419;BME280;21525;41.240;16.500;2023-03-03T02:35:47;101183.88;;;16.12;54.97
35419;BME280;21525;41.240;16.500;2023-03-03T02:43:36;101187.16;;;16.21;55.16
35419;BME280;21525;41.240;16.500;2023-03-03T02:46:05;101187.22;;;16.18;54.97
35419;BME280;21525;41.240;16.500;2023-03-03T02:48:33;101190.41;;;15.98;55.12
35419;BME280;21525;41.240;16.500;2023-03-03T02:50:59;101189.97;;;16.13;54.64
35419;BME280;21525;41.240;16.500;2023-03-03T02:53:24;101194.41;;;16.40;52.82
35419;BME280;21525;41.240;16.500;2023-03-03T02:55:51;101192.31;;;16.53;52.82
35419;BME280;21525;41.240;16.500;2023-03-03T02:58:17;101193.84;;;16.59;52.77
35419;BME280;21525;41.240;16.500;2023-03-03T03:00:43;101197.47;;;16.56;52.59
35419;BME280;21525;41.240;16.500;2023-03-03T03:03:15;101196.06;;;16.44;53.11
35419;BME280;21525;41.240;16.500;2023-03-03T03:05:41;101197.66;;;16.50;52.78
35419;BME280;21525;41.240;16.500;2023-03-03T03:08:07;101194.03;;;16.54;52.26
35419;BME280;21525;41.240;16.500;2023-03-03T03:10:32;101194.03;;;16.54;52.69
35419;BME280;21525;41.240;16.500;2023-03-03T03:12:59;101198.03;;;16.36;52.42
35419;BME280;21525;41.240;16.500;2023-03-03T03:15:25;101192.13;;;16.58;51.83
35419;BME280;21525;41.240;16.500;2023-03-03T03:17:50;101206.28;;;16.54;52.71
35419;BME280;21525;41.240;16.500;2023-03-03T03:20:17;101203.47;;;15.99;54.21
35419;BME280;21525;41.240;16.500;2023-03-03T03:22:43;101205.13;;;16.03;54.53
35419;BME280;21525;41.240;16.500;2023-03-03T03:25:09;101198.00;;;16.38;53.23
35419;BME280;21525;41.240;16.500;2023-03-03T03:27:36;101198.91;;;16.37;52.95
35419;BME280;21525;41.240;16.500;2023-03-03T03:30:02;101190.72;;;16.48;52.81
35419;BME280;21525;41.240;16.500;2023-03-03T03:32:29;101197.78;;;16.45;53.09
35419;BME280;21525;41.240;16.500;2023-03-03T03:34:55;101192.81;;;16.66;52.97
35419;BME280;21525;41.240;16.500;2023-03-03T03:37:21;101194.72;;;16.59;52.94
35419;BME280;21525;41.240;16.500;2023-03-03T03:39:47;101191.06;;;16.35;53.79
35419;BME280;21525;41.240;16.500;2023-03-03T03:42:13;101193.09;;;16.26;54.22
35419;BME280;21525;41.240;16.500;2023-03-03T03:44:39;101188.69;;;16.26;54.19
35419;BME280;21525;41.240;16.500;2023-03-03T03:47:05;101193.47;;;16.13;54.14
35419;BME280;21525;41.240;16.500;2023-03-03T03:49:33;101192.09;;;16.30;54.02
35419;BME280;21525;41.240;16.500;2023-03-03T03:51:58;101192.66;;;16.11;54.39
35419;BME280;21525;41.240;16.500;2023-03-03T03:54:28;101191.63;;;16.17;54.53
35419;BME280;21525;41.240;16.500;2023-03-03T03:56:54;101195.47;;;16.35;53.30
35419;BME280;21525;41.240;16.500;2023-03-03T03:59:22;101194.00;;;16.25;54.10
35419;BME280;21525;41.240;16.500;2023-03-03T04:01:49;101185.88;;;16.34;53.33
35419;BME280;21525;41.240;16.500;2023-03-03T04:04:15;101194.56;;;16.36;53.12
35419;BME280;21525;41.240;16.500;2023-03-03T04:06:42;101199.53;;;16.45;52.59
35419;BME280;21525;41.240;16.500;2023-03-03T04:09:08;101198.13;;;16.33;53.14
35419;BME280;21525;41.240;16.500;2023-03-03T04:11:34;101202.81;;;16.24;52.42
35419;BME280;21525;41.240;16.500;2023-03-03T04:14:02;101205.72;;;16.13;52.87
35419;BME280;21525;41.240;16.500;2023-03-03T04:16:28;101210.28;;;16.06;52.69
35419;BME280;21525;41.240;16.500;2023-03-03T04:18:54;101205.59;;;16.18;52.81
35419;BME280;21525;41.240;16.500;2023-03-03T04:21:21;101206.97;;;16.00;53.28
35419;BME280;21525;41.240;16.500;2023-03-03T04:23:47;101215.66;;;16.02;53.27
35419;BME280;21525;41.240;16.500;2023-03-03T04:26:13;101214.91;;;15.97;53.80
35419;BME280;21525;41.240;16.500;2023-03-03T04:28:40;101212.41;;;15.92;53.09
35419;BME280;21525;41.240;16.500;2023-03-03T04:31:06;101216.03;;;15.88;53.10
35419;BME280;21525;41.240;16.500;2023-03-03T04:33:33;101219.66;;;16.15;52.80
35419;BME280;21525;41.240;16.500;2023-03-03T04:36:00;101213.72;;;16.08;52.91
35419;BME280;21525;41.240;16.500;2023-03-03T04:38:26;101218.81;;;16.15;52.56
35419;BME280;21525;41.240;16.500;2023-03-03T04:40:53;101221.69;;;16.05;52.75
35419;BME280;21525;41.240;16.500;2023-03-03T04:43:19;101215.16;;;15.89;53.40
35419;BME280;21525;41.240;16.500;2023-03-03T04:45:46;101226.16;;;16.02;53.42
35419;BME280;21525;41.240;16.500;2023-03-03T04:48:12;101227.59;;;15.81;53.74
35419;BME280;21525;41.240;16.500;2023-03-03T04:50:38;101234.72;;;16.08;53.39
35419;BME280;21525;41.240;16.500;2023-03-03T04:53:04;101229.38;;;16.11;52.97
35419;BME280;21525;41.240;16.500;2023-03-03T04:55:30;101228.03;;;15.97;52.34
35419;BME280;21525;41.240;16.500;2023-03-03T04:57:56;101231.78;;;15.88;52.66
35419;BME280;21525;41.240;16.500;2023-03-03T05:00:22;101233.00;;;16.07;52.35
35419;BME280;21525;41.240;16.500;2023-03-03T05:02:48;101232.56;;;15.92;52.58
35419;BME280;21525;41.240;16.500;2023-03-03T05:05:14;101238.25;;;16.07;52.28
35419;BME280;21525;41.240;16.500;2023-03-03T05:07:41;101231.97;;;16.13;51.79
35419;BME280;21525;41.240;16.500;2023-03-03T05:10:07;101230.44;;;16.04;52.55
35419;BME280;21525;41.240;16.500;2023-03-03T05:12:33;101224.09;;;16.13;52.35
35419;BME280;21525;41.240;16.500;2023-03-03T05:14:59;101228.69;;;16.05;52.50
35419;BME280;21525;41.240;16.500;2023-03-03T05:17:25;101236.84;;;15.94;52.48
35419;BME280;21525;41.240;16.500;2023-03-03T05:19:51;101233.34;;;15.94;52.88
35419;BME280;21525;41.240;16.500;2023-03-03T05:22:17;101235.47;;;15.81;53.26
35419;BME280;21525;41.240;16.500;2023-03-03T05:24:43;101235.94;;;15.95;53.18
35419;BME280;21525;41.240;16.500;2023-03-03T05:27:08;101233.13;;;15.70;53.66
35419;BME280;21525;41.240;16.500;2023-03-03T05:29:36;101230.13;;;15.84;53.46
35419;BME280;21525;41.240;16.500;2023-03-03T05:32:02;101237.41;;;15.73;53.68
35419;BME280;21525;41.240;16.500;2023-03-03T05:34:27;101234.69;;;15.77;53.79
35419;BME280;21525;41.240;16.500;2023-03-03T05:36:53;101236.38;;;15.80;53.55
35419;BME280;21525;41.240;16.500;2023-03-03T05:39:19;101239.44;;;15.96;53.05
35419;BME280;21525;41.240;16.500;2023-03-03T05:41:45;101235.97;;;15.94;52.77
35419;BME280;21525;41.240;16.500;2023-03-03T05:44:10;101234.63;;;16.11;52.53
35419;BME280;21525;41.240;16.500;2023-03-03T05:46:36;101232.22;;;16.35;51.76
35419;BME280;21525;41.240;16.500;2023-03-03T05:49:02;101228.28;;;16.20;52.37
35419;BME280;21525;41.240;16.500;2023-03-03T05:51:28;101230.22;;;16.13;52.31
35419;BME280;21525;41.240;16.500;2023-03-03T05:53:54;101234.06;;;16.31;52.17
35419;BME280;21525;41.240;16.500;2023-03-03T05:56:20;101239.56;;;16.24;52.31
35419;BME280;21525;41.240;16.500;2023-03-03T05:58:46;101233.94;;;16.36;52.51
35419;BME280;21525;41.240;16.500;2023-03-03T06:01:12;101242.06;;;16.27;52.15
35419;BME280;21525;41.240;16.500;2023-03-03T06:03:37;101236.28;;;17.57;50.08
35419;BME280;21525;41.240;16.500;2023-03-03T06:06:03;101231.03;;;17.57;49.16
35419;BME280;21525;41.240;16.500;2023-03-03T06:08:29;101240.69;;;17.30;49.30
35419;BME280;21525;41.240;16.500;2023-03-03T06:10:57;101238.63;;;17.13;49.76
35419;BME280;21525;41.240;16.500;2023-03-03T06:13:23;101242.56;;;17.26;49.70
35419;BME280;21525;41.240;16.500;2023-03-03T06:15:49;101241.41;;;17.61;49.37
35419;BME280;21525;41.240;16.500;2023-03-03T06:18:15;101249.94;;;18.19;48.09
35419;BME280;21525;41.240;16.500;2023-03-03T06:20:41;101239.09;;;18.97;46.70
35419;BME280;21525;41.240;16.500;2023-03-03T06:23:07;101241.22;;;20.53;43.58
35419;BME280;21525;41.240;16.500;2023-03-03T06:25:33;101238.28;;;22.03;40.83
35419;BME280;21525;41.240;16.500;2023-03-03T06:28:00;101244.75;;;22.79;38.62
35419;BME280;21525;41.240;16.500;2023-03-03T06:30:26;101238.72;;;23.38;37.64
35419;BME280;21525;41.240;16.500;2023-03-03T06:32:53;101232.25;;;24.45;36.24
35419;BME280;21525;41.240;16.500;2023-03-03T06:35:19;101238.81;;;24.68;35.30
35419;BME280;21525;41.240;16.500;2023-03-03T06:37:45;101236.34;;;24.65;35.29
35419;BME280;21525;41.240;16.500;2023-03-03T06:40:11;101247.13;;;24.90;34.84
35419;BME280;21525;41.240;16.500;2023-03-03T06:42:37;101234.56;;;25.98;33.72
35419;BME280;21525;41.240;16.500;2023-03-03T06:45:03;101243.50;;;25.85;34.05
35419;BME280;21525;41.240;16.500;2023-03-03T06:47:29;101240.00;;;26.35;33.06
35419;BME280;21525;41.240;16.500;2023-03-03T06:49:54;101246.84;;;26.88;33.14
35419;BME280;21525;41.240;16.500;2023-03-03T06:52:24;101234.59;;;27.09;32.16
35419;BME280;21525;41.240;16.500;2023-03-03T06:54:53;101232.34;;;27.97;31.45
35419;BME280;21525;41.240;16.500;2023-03-03T06:57:26;101234.63;;;27.44;31.88
35419;BME280;21525;41.240;16.500;2023-03-03T06:59:54;101231.69;;;28.40;30.85
35419;BME280;21525;41.240;16.500;2023-03-03T07:02:21;101233.50;;;28.28;31.06
35419;BME280;21525;41.240;16.500;2023-03-03T07:04:48;101230.63;;;29.29;29.78
35419;BME280;21525;41.240;16.500;2023-03-03T07:07:22;101224.25;;;29.20;30.11
35419;BME280;21525;41.240;16.500;2023-03-03T07:09:54;101219.84;;;29.72;29.28
35419;BME280;21525;41.240;16.500;2023-03-03T07:12:22;101216.38;;;30.63;28.58
35419;BME280;21525;41.240;16.500;2023-03-03T07:14:56;101220.38;;;29.13;30.46
35419;BME280;21525;41.240;16.500;2023-03-03T07:17:25;101227.56;;;29.33;30.14
35419;BME280;21525;41.240;16.500;2023-03-03T07:19:51;101223.97;;;29.76;29.97
35419;BME280;21525;41.240;16.500;2023-03-03T07:22:23;101222.25;;;29.96;29.85
35419;BME280;21525;41.240;16.500;2023-03-03T07:24:52;101219.16;;;31.21;28.80
35419;BME280;21525;41.240;16.500;2023-03-03T07:29:50;101238.06;;;29.25;29.96
35419;BME280;21525;41.240;16.500;2023-03-03T07:32:39;101228.63;;;30.25;29.22
35419;BME280;21525;41.240;16.500;2023-03-03T07:37:56;101235.38;;;29.36;29.68
35419;BME280;21525;41.240;16.500;2023-03-03T07:40:37;101239.63;;;31.02;29.17
35419;BME280;21525;41.240;16.500;2023-03-03T07:46:39;101226.47;;;32.33;27.31
35419;BME280;21525;41.240;16.500;2023-03-03T07:48:51;101233.09;;;30.86;28.43
35419;BME280;21525;41.240;16.500;2023-03-03T07:53:59;101222.25;;;31.26;28.13
35419;BME280;21525;41.240;16.500;2023-03-03T07:56:37;101225.19;;;30.84;28.72
35419;BME280;21525;41.240;16.500;2023-03-03T07:59:35;101237.75;;;28.87;30.53
35419;BME280;21525;41.240;16.500;2023-03-03T08:02:00;101244.19;;;27.12;32.15
35419;BME280;21525;41.240;16.500;2023-03-03T08:04:43;101238.75;;;27.72;31.28
35419;BME280;21525;41.240;16.500;2023-03-03T08:07:20;101241.16;;;28.55;30.76
35419;BME280;21525;41.240;16.500;2023-03-03T08:09:47;101237.44;;;27.78;31.41
35419;BME280;21525;41.240;16.500;2023-03-03T08:14:51;101231.94;;;29.66;30.36
35419;BME280;21525;41.240;16.500;2023-03-03T08:17:22;101243.38;;;29.16;30.82
35419;BME280;21525;41.240;16.500;2023-03-03T08:19:50;101248.69;;;26.75;33.08
35419;BME280;21525;41.240;16.500;2023-03-03T08:22:34;101246.59;;;28.76;31.39
35419;BME280;21525;41.240;16.500;2023-03-03T08:25:01;101248.72;;;25.73;35.05
35419;BME280;21525;41.240;16.500;2023-03-03T08:27:27;101240.41;;;27.62;33.73
35419;BME280;21525;41.240;16.500;2023-03-03T08:29:52;101245.69;;;27.75;33.60
35419;BME280;21525;41.240;16.500;2023-03-03T08:32:18;101261.34;;;23.90;38.20
35419;BME280;21525;41.240;16.500;2023-03-03T08:34:44;101261.03;;;24.24;38.56
35419;BME280;21525;41.240;16.500;2023-03-03T08:37:10;101263.72;;;25.08;37.22
35419;BME280;21525;41.240;16.500;2023-03-03T08:39:36;101258.84;;;23.72;38.95
35419;BME280;21525;41.240;16.500;2023-03-03T08:42:02;101264.00;;;22.83;40.40
35419;BME280;21525;41.240;16.500;2023-03-03T08:44:28;101257.56;;;23.94;38.86
35419;BME280;21525;41.240;16.500;2023-03-03T08:46:53;101266.44;;;22.54;42.15
35419;BME280;21525;41.240;16.500;2023-03-03T08:49:20;101260.44;;;23.61;40.40
35419;BME280;21525;41.240;16.500;2023-03-03T08:51:46;101255.56;;;23.53;39.72
35419;BME280;21525;41.240;16.500;2023-03-03T08:54:12;101255.25;;;24.60;38.76
35419;BME280;21525;41.240;16.500;2023-03-03T08:56:38;101255.81;;;24.51;38.96
35419;BME280;21525;41.240;16.500;2023-03-03T08:59:05;101251.16;;;23.68;40.02
35419;BME280;21525;41.240;16.500;2023-03-03T09:01:31;101250.91;;;24.31;39.95
35419;BME280;21525;41.240;16.500;2023-03-03T09:03:57;101252.72;;;24.30;39.47
35419;BME280;21525;41.240;16.500;2023-03-03T09:06:23;101253.56;;;24.31;40.01
35419;BME280;21525;41.240;16.500;2023-03-03T09:08:49;101250.41;;;23.80;40.51
35419;BME280;21525;41.240;16.500;2023-03-03T09:11:23;101246.69;;;23.38;41.71
35419;BME280;21525;41.240;16.500;2023-03-03T09:13:49;101242.66;;;24.35;40.45
35419;BME280;21525;41.240;16.500;2023-03-03T09:16:17;101250.91;;;22.79;41.75
35419;BME280;21525;41.240;16.500;2023-03-03T09:18:46;101245.06;;;23.20;40.75
35419;BME280;21525;41.240;16.500;2023-03-03T09:21:21;101247.34;;;24.02;39.97
35419;BME280;21525;41.240;16.500;2023-03-03T09:23:55;101239.78;;;23.66;41.08
35419;BME280;21525;41.240;16.500;2023-03-03T09:26:47;101233.38;;;24.69;39.42
35419;BME280;21525;41.240;16.500;2023-03-03T09:36:39;101237.19;;;22.40;43.32
35419;BME280;21525;41.240;16.500;2023-03-03T09:39:31;101231.19;;;22.52;43.26
35419;BME280;21525;41.240;16.500;2023-03-03T09:48:19;101254.19;;;20.77;47.03
35419;BME280;21525;41.240;16.500;2023-03-03T10:01:02;101264.50;;;21.90;45.87
35419;BME280;21525;41.240;16.500;2023-03-03T10:06:55;101273.25;;;19.86;50.56
35419;BME280;21525;41.240;16.500;2023-03-03T10:12:32;101267.13;;;19.85;50.34
35419;BME280;21525;41.240;16.500;2023-03-03T10:15:56;101274.25;;;20.63;49.16
35419;BME280;21525;41.240;16.500;2023-03-03T10:21:15;101263.72;;;21.88;47.06
35419;BME280;21525;41.240;16.500;2023-03-03T10:23:50;101258.63;;;21.32;47.65
35419;BME280;21525;41.240;16.500;2023-03-03T10:40:32;101242.75;;;20.77;45.26
35419;BME280;21525;41.240;16.500;2023-03-03T10:43:41;101246.47;;;20.34;48.40
35419;BME280;21525;41.240;16.500;2023-03-03T10:49:00;101221.41;;;19.42;49.35
35419;BME280;21525;41.240;16.500;2023-03-03T10:57:14;101223.75;;;19.91;52.13
35419;BME280;21525;41.240;16.500;2023-03-03T11:00:04;101225.38;;;18.42;56.22
35419;BME280;21525;41.240;16.500;2023-03-03T11:05:39;101203.28;;;18.91;55.87
35419;BME280;21525;41.240;16.500;2023-03-03T11:08:23;101202.47;;;19.75;53.96
35419;BME280;21525;41.240;16.500;2023-03-03T11:16:51;101189.06;;;18.27;59.06
35419;BME280;21525;41.240;16.500;2023-03-03T11:19:39;101179.75;;;21.40;49.57
35419;BME280;21525;41.240;16.500;2023-03-03T11:27:18;101180.06;;;20.23;53.82
35419;BME280;21525;41.240;16.500;2023-03-03T11:32:39;101191.88;;;20.53;51.80
35419;BME280;21525;41.240;16.500;2023-03-03T11:38:25;101184.63;;;20.39;52.70
35419;BME280;21525;41.240;16.500;2023-03-03T11:41:02;101184.16;;;21.57;51.06
35419;BME280;21525;41.240;16.500;2023-03-03T11:43:31;101183.84;;;21.63;51.50
35419;BME280;21525;41.240;16.500;2023-03-03T11:46:12;101204.53;;;19.04;58.35
35419;BME280;21525;41.240;16.500;2023-03-03T11:51:33;101193.09;;;20.65;54.02
35419;BME280;21525;41.240;16.500;2023-03-03T11:54:19;101186.88;;;19.49;57.33
35419;BME280;21525;41.240;16.500;2023-03-03T11:56:47;101195.00;;;18.55;61.94
35419;BME280;21525;41.240;16.500;2023-03-03T11:59:30;101196.69;;;18.81;64.22
35419;BME280;21525;41.240;16.500;2023-03-03T12:02:22;101200.75;;;18.20;65.90
35419;BME280;21525;41.240;16.500;2023-03-03T12:05:31;101197.16;;;19.12;62.39
35419;BME280;21525;41.240;16.500;2023-03-03T12:11:04;101187.84;;;19.87;61.67
35419;BME280;21525;41.240;16.500;2023-03-03T12:13:53;101178.94;;;20.09;60.68
35419;BME280;21525;41.240;16.500;2023-03-03T12:24:55;101176.03;;;18.70;69.01
35419;BME280;21525;41.240;16.500;2023-03-03T12:30:35;101174.75;;;18.81;68.19
35419;BME280;21525;41.240;16.500;2023-03-03T12:33:14;101172.78;;;19.70;65.68
35419;BME280;21525;41.240;16.500;2023-03-03T12:41:02;101172.28;;;19.40;66.80
35419;BME280;21525;41.240;16.500;2023-03-03T12:48:50;101172.13;;;20.23;63.02
35419;BME280;21525;41.240;16.500;2023-03-03T12:57:08;101178.28;;;18.56;75.72
35419;BME280;21525;41.240;16.500;2023-03-03T12:59:47;101184.00;;;18.45;75.00
35419;BME280;21525;41.240;16.500;2023-03-03T13:07:37;101174.31;;;16.97;87.85
35419;BME280;21525;41.240;16.500;2023-03-03T13:12:52;101162.81;;;17.52;90.29
35419;BME280;21525;41.240;16.500;2023-03-03T13:15:56;101162.78;;;17.54;90.00
35419;BME280;21525;41.240;16.500;2023-03-03T13:18:37;101147.66;;;18.08;86.38
35419;BME280;21525;41.240;16.500;2023-03-03T13:21:18;101149.91;;;18.19;83.22
35419;BME280;21525;41.240;16.500;2023-03-03T13:23:53;101131.69;;;19.22;76.68
35419;BME280;21525;41.240;16.500;2023-03-03T13:26:25;101142.22;;;19.02;77.15
35419;BME280;21525;41.240;16.500;2023-03-03T13:31:38;101149.84;;;19.30;75.92
35419;BME280;21525;41.240;16.500;2023-03-03T13:34:04;101154.69;;;18.76;80.42
35419;BME280;21525;41.240;16.500;2023-03-03T13:36:58;101147.06;;;18.47;79.77
35419;BME280;21525;41.240;16.500;2023-03-03T13:39:31;101134.03;;;18.88;79.04
35419;BME280;21525;41.240;16.500;2023-03-03T13:44:41;101129.34;;;19.16;72.12
35419;BME280;21525;41.240;16.500;2023-03-03T13:47:47;101120.66;;;18.49;75.97
35419;BME280;21525;41.240;16.500;2023-03-03T13:58:59;101108.59;;;18.43;77.79
35419;BME280;21525;41.240;16.500;2023-03-03T14:02:03;101109.69;;;17.91;79.95
35419;BME280;21525;41.240;16.500;2023-03-03T14:07:21;101098.56;;;18.74;75.09
35419;BME280;21525;41.240;16.500;2023-03-03T14:09:54;101102.53;;;18.63;74.10
35419;BME280;21525;41.240;16.500;2023-03-03T14:12:34;101120.16;;;19.04;71.33
35419;BME280;21525;41.240;16.500;2023-03-03T14:17:57;101100.88;;;19.84;65.16
35419;BME280;21525;41.240;16.500;2023-03-03T14:20:28;101108.34;;;17.81;78.04
35419;BME280;21525;41.240;16.500;2023-03-03T14:28:41;101090.94;;;18.89;73.72
35419;BME280;21525;41.240;16.500;2023-03-03T14:33:43;101086.75;;;19.05;73.84
35419;BME280;21525;41.240;16.500;2023-03-03T14:36:12;101085.66;;;18.89;75.08
35419;BME280;21525;41.240;16.500;2023-03-03T14:38:42;101083.56;;;19.17;73.61
35419;BME280;21525;41.240;16.500;2023-03-03T14:46:36;101076.25;;;18.61;76.17
35419;BME280;21525;41.240;16.500;2023-03-03T14:49:06;101077.75;;;19.50;69.99
35419;BME280;21525;41.240;16.500;2023-03-03T14:51:44;101085.00;;;18.18;70.73
35419;BME280;21525;41.240;16.500;2023-03-03T14:54:20;101077.31;;;18.56;73.21
35419;BME280;21525;41.240;16.500;2023-03-03T14:57:08;101080.34;;;18.46;72.93
35419;BME280;21525;41.240;16.500;2023-03-03T14:59:36;101077.69;;;18.90;72.95
35419;BME280;21525;41.240;16.500;2023-03-03T15:04:42;101080.06;;;18.76;73.56
35419;BME280;21525;41.240;16.500;2023-03-03T15:07:32;101079.50;;;18.46;76.84
35419;BME280;21525;41.240;16.500;2023-03-03T15:10:06;101075.63;;;18.33;77.54
35419;BME280;21525;41.240;16.500;2023-03-03T15:17:54;101063.19;;;18.15;87.86
35419;BME280;21525;41.240;16.500;2023-03-03T15:25:58;101077.00;;;18.20;94.07
35419;BME280;21525;41.240;16.500;2023-03-03T15:33:56;101076.41;;;18.57;87.42
35419;BME280;21525;41.240;16.500;2023-03-03T15:36:46;101082.56;;;17.89;96.41
35419;BME280;21525;41.240;16.500;2023-03-03T15:39:31;101084.19;;;18.38;95.73
35419;BME280;21525;41.240;16.500;2023-03-03T15:50:37;101071.47;;;17.32;93.12
35419;BME280;21525;41.240;16.500;2023-03-03T15:56:14;101061.94;;;18.01;88.00
35419;BME280;21525;41.240;16.500;2023-03-03T16:04:35;101061.03;;;19.30;79.32
35419;BME280;21525;41.240;16.500;2023-03-03T16:12:20;101063.63;;;18.69;79.56
35419;BME280;21525;41.240;16.500;2023-03-03T16:15:03;101063.41;;;18.52;81.00
35419;BME280;21525;41.240;16.500;2023-03-03T16:20:34;101055.66;;;18.49;81.03
35419;BME280;21525;41.240;16.500;2023-03-03T16:23:33;101060.28;;;18.86;77.80
35419;BME280;21525;41.240;16.500;2023-03-03T16:26:09;101057.81;;;18.18;82.50
35419;BME280;21525;41.240;16.500;2023-03-03T16:28:56;101057.63;;;18.66;79.82
35419;BME280;21525;41.240;16.500;2023-03-03T16:31:49;101061.81;;;18.04;80.19
35419;BME280;21525;41.240;16.500;2023-03-03T16:37:20;101071.63;;;18.23;73.66
35419;BME280;21525;41.240;16.500;2023-03-03T16:39:57;101064.03;;;18.37;70.53
35419;BME280;21525;41.240;16.500;2023-03-03T16:42:30;101068.78;;;18.72;71.46
35419;BME280;21525;41.240;16.500;2023-03-03T16:45:14;101073.78;;;18.35;71.82
35419;BME280;21525;41.240;16.500;2023-03-03T16:47:52;101076.19;;;17.23;77.62
35419;BME280;21525;41.240;16.500;2023-03-03T16:55:54;101073.34;;;18.24;72.53
35419;BME280;21525;41.240;16.500;2023-03-03T17:08:40;101076.88;;;18.23;73.00